Dades meteomassalio
Diari Summary for Marc 10, 2017 Units:  Metric    English   Both
« Previous Day
Next Day »
Diari Semanal Mensual Anual Personalitzat
  Maxima: Minima: Mijana:
Temperatura: 27.5 °C 10.2 °C 18.3 °C
Rosada: 7.2 °C 0.1 °C 4.8 °C
Humitat: 68 % 18 % 45 %
Velocitat del vent: 35.2 km/h 0.0 km/h 8.8 km/h
Racha vent: 35.2 km/h - -
Vent:- - WNW
Pressio: 1023.6 hPa 1016.8 hPa -
Pluja: 0.0 mm    
Historical Graphs
 
 
Tabular Data for Marc 10, 2017
Time Temperature Dew Point Pressure Wind Wind Speed Wind Gust Humidity Rainfall Rate (Hourly) solar Conditions
00:01 12.8 °C 7.1 °C 1023.2 hPa Calm     68 % 0.0 mm 0.0 W/m2 CLR
00:06 13.0 °C 7.0 °C 1023.2 hPa WSW 5.6 km/h 5.6 km/h 67 % 0.0 mm 0.0 W/m2 CLR
00:11 13.3 °C 7.1 °C 1023.2 hPa Calm     66 % 0.0 mm 0.0 W/m2 CLR
00:16 13.2 °C 6.9 °C 1023.6 hPa Calm     66 % 0.0 mm 0.0 W/m2 CLR
00:21 12.8 °C 6.8 °C 1023.6 hPa Calm     67 % 0.0 mm 0.0 W/m2 CLR
00:22 12.8 °C 6.8 °C 1023.6 hPa Calm     67 % 0.0 mm 0.0 W/m2 CLR
00:27 12.9 °C 6.7 °C 1023.6 hPa Calm     66 % 0.0 mm 0.0 W/m2 CLR
00:32 13.0 °C 6.8 °C 1023.6 hPa Calm     66 % 0.0 mm 0.0 W/m2 CLR
00:37 13.0 °C 6.8 °C 1023.6 hPa Calm     66 % 0.0 mm 0.0 W/m2 CLR
00:43 12.7 °C 6.7 °C 1023.6 hPa Calm     67 % 0.0 mm 0.0 W/m2 CLR
00:48 12.6 °C 6.7 °C 1023.6 hPa Calm     67 % 0.0 mm 0.0 W/m2 CLR
00:53 12.8 °C 6.6 °C 1023.2 hPa WSW 3.7 km/h 3.7 km/h 66 % 0.0 mm 0.0 W/m2 CLR
00:58 13.1 °C 6.8 °C 1023.2 hPa SW 7.4 km/h 7.4 km/h 66 % 0.0 mm 0.0 W/m2 CLR
01:03 13.2 °C 6.7 °C 1023.2 hPa SW 5.6 km/h 5.6 km/h 65 % 0.0 mm 0.0 W/m2 CLR
01:09 13.2 °C 6.8 °C 1023.2 hPa Calm     65 % 0.0 mm 0.0 W/m2 CLR
01:14 13.2 °C 6.7 °C 1023.2 hPa Calm     65 % 0.0 mm 0.0 W/m2 CLR
01:19 12.9 °C 6.7 °C 1023.2 hPa Calm     66 % 0.0 mm 0.0 W/m2 CLR
01:24 12.8 °C 6.6 °C 1023.2 hPa Calm     66 % 0.0 mm 0.0 W/m2 CLR
01:29 12.9 °C 6.7 °C 1023.2 hPa Calm     66 % 0.0 mm 0.0 W/m2 CLR
01:34 13.1 °C 6.6 °C 1023.2 hPa Calm     65 % 0.0 mm 0.0 W/m2 CLR
01:39 13.3 °C 6.7 °C 1023.2 hPa Calm     64 % 0.0 mm 0.0 W/m2 CLR
01:44 13.5 °C 6.8 °C 1023.2 hPa Calm     64 % 0.0 mm 0.0 W/m2 CLR
01:50 13.4 °C 6.6 °C 1023.2 hPa Calm     63 % 0.0 mm 0.0 W/m2 CLR
01:55 13.4 °C 6.5 °C 1023.2 hPa Calm     63 % 0.0 mm 0.0 W/m2 CLR
02:00 13.4 °C 6.6 °C 1023.2 hPa Calm     63 % 0.0 mm 0.0 W/m2 CLR
02:05 13.4 °C 6.5 °C 1023.2 hPa Calm     63 % 0.0 mm 0.0 W/m2 CLR
02:10 13.3 °C 6.4 °C 1023.2 hPa Calm     63 % 0.0 mm 0.0 W/m2 CLR
02:15 13.1 °C 6.4 °C 1023.2 hPa Calm     64 % 0.0 mm 0.0 W/m2 CLR
02:20 12.9 °C 6.2 °C 1023.2 hPa Calm     64 % 0.0 mm 0.0 W/m2 CLR
02:25 12.8 °C 6.2 °C 1022.9 hPa Calm     64 % 0.0 mm 0.0 W/m2 CLR
02:30 12.7 °C 6.3 °C 1022.9 hPa Calm     65 % 0.0 mm 0.0 W/m2 CLR
02:35 12.4 °C 6.3 °C 1022.9 hPa Calm     66 % 0.0 mm 0.0 W/m2 CLR
02:41 12.3 °C 6.1 °C 1022.9 hPa Calm     66 % 0.0 mm 0.0 W/m2 CLR
02:46 12.3 °C 6.1 °C 1022.9 hPa Calm     66 % 0.0 mm 0.0 W/m2 CLR
02:51 12.4 °C 6.0 °C 1022.9 hPa Calm     65 % 0.0 mm 0.0 W/m2 CLR
02:56 12.5 °C 6.1 °C 1022.6 hPa WSW 3.2 km/h 3.2 km/h 65 % 0.0 mm 0.0 W/m2 CLR
03:01 12.4 °C 5.8 °C 1022.9 hPa WSW 1.9 km/h   64 % 0.0 mm 0.0 W/m2 CLR
03:06 12.7 °C 5.8 °C 1022.6 hPa SW 5.6 km/h 5.6 km/h 63 % 0.0 mm 0.0 W/m2 CLR
03:11 12.9 °C 5.8 °C 1022.6 hPa Calm     62 % 0.0 mm 0.0 W/m2 CLR
03:16 12.7 °C 5.8 °C 1022.6 hPa Calm     63 % 0.0 mm 0.0 W/m2 CLR
03:22 12.3 °C 5.7 °C 1022.6 hPa Calm     64 % 0.0 mm 0.0 W/m2 CLR
03:27 12.2 °C 5.6 °C 1022.6 hPa Calm     64 % 0.0 mm 0.0 W/m2 CLR
03:32 12.2 °C 5.6 °C 1022.6 hPa Calm     64 % 0.0 mm 0.0 W/m2 CLR
03:37 12.2 °C 5.4 °C 1022.6 hPa Calm     63 % 0.0 mm 0.0 W/m2 CLR
03:42 12.3 °C 5.4 °C 1022.2 hPa Calm     63 % 0.0 mm 0.0 W/m2 CLR
03:47 12.3 °C 5.5 °C 1022.2 hPa Calm     63 % 0.0 mm 0.0 W/m2 CLR
03:52 12.3 °C 5.5 °C 1022.2 hPa Calm     63 % 0.0 mm 0.0 W/m2 CLR
03:57 12.3 °C 5.4 °C 1022.2 hPa Calm     63 % 0.0 mm 0.0 W/m2 CLR
04:02 12.2 °C 5.4 °C 1022.2 hPa Calm     63 % 0.0 mm 0.0 W/m2 CLR
04:07 12.2 °C 5.3 °C 1022.2 hPa Calm     63 % 0.0 mm 0.0 W/m2 CLR
04:12 12.1 °C 5.5 °C 1022.2 hPa Calm     64 % 0.0 mm 0.0 W/m2 CLR
04:17 12.0 °C 5.4 °C 1022.2 hPa Calm     64 % 0.0 mm 0.0 W/m2 CLR
04:22 11.9 °C 5.5 °C 1022.2 hPa Calm   0.2 km/h 65 % 0.0 mm 0.0 W/m2 CLR
04:27 11.8 °C 5.4 °C 1021.9 hPa Calm     65 % 0.0 mm 0.0 W/m2 CLR
04:32 11.6 °C 5.2 °C 1021.9 hPa Calm     65 % 0.0 mm 0.0 W/m2 CLR
04:38 11.6 °C 5.2 °C 1021.9 hPa Calm     65 % 0.0 mm 0.0 W/m2 CLR
04:43 11.6 °C 5.2 °C 1021.9 hPa Calm     65 % 0.0 mm 0.0 W/m2 CLR
04:48 11.6 °C 5.2 °C 1021.9 hPa Calm     65 % 0.0 mm 0.0 W/m2 CLR
04:53 11.7 °C 5.3 °C 1021.9 hPa Calm     65 % 0.0 mm 0.0 W/m2 CLR
04:58 11.8 °C 5.2 °C 1021.9 hPa Calm     64 % 0.0 mm 0.0 W/m2 CLR
05:03 11.8 °C 5.2 °C 1021.9 hPa Calm     64 % 0.0 mm 0.0 W/m2 CLR
05:08 11.8 °C 5.2 °C 1021.9 hPa Calm     64 % 0.0 mm 0.0 W/m2 CLR
05:13 11.8 °C 5.2 °C 1021.9 hPa Calm     64 % 0.0 mm 0.0 W/m2 CLR
05:18 11.7 °C 5.1 °C 1021.9 hPa Calm     64 % 0.0 mm 0.0 W/m2 CLR
05:23 11.8 °C 5.2 °C 1021.9 hPa Calm     64 % 0.0 mm 0.0 W/m2 CLR
05:28 11.9 °C 5.1 °C 1021.9 hPa Calm     63 % 0.0 mm 0.0 W/m2 CLR
05:33 12.1 °C 5.2 °C 1021.9 hPa Calm     63 % 0.0 mm 0.0 W/m2 CLR
05:38 12.1 °C 5.2 °C 1021.9 hPa Calm     63 % 0.0 mm 0.0 W/m2 CLR
05:43 12.3 °C 5.3 °C 1021.9 hPa WSW 9.3 km/h 9.3 km/h 62 % 0.0 mm 0.0 W/m2 CLR
05:48 13.6 °C 5.2 °C 1021.9 hPa West 13.0 km/h 13.0 km/h 57 % 0.0 mm 0.0 W/m2 CLR
05:53 15.0 °C 5.2 °C 1021.9 hPa WSW 11.1 km/h 11.1 km/h 52 % 0.0 mm 0.0 W/m2 CLR
05:58 15.5 °C 5.1 °C 1021.6 hPa West 12.9 km/h 12.9 km/h 50 % 0.0 mm 0.0 W/m2 CLR
06:03 15.2 °C 5.2 °C 1021.6 hPa WSW 3.7 km/h 3.7 km/h 51 % 0.0 mm 0.0 W/m2 CLR
06:08 14.3 °C 4.9 °C 1021.6 hPa WSW 5.6 km/h 5.6 km/h 53 % 0.0 mm 0.0 W/m2 CLR
06:13 13.8 °C 4.9 °C 1021.6 hPa WSW 11.1 km/h 11.1 km/h 55 % 0.0 mm 0.0 W/m2 CLR
06:18 13.7 °C 4.8 °C 1021.9 hPa WSW 7.4 km/h 7.4 km/h 55 % 0.0 mm 0.0 W/m2 CLR
06:23 13.8 °C 4.9 °C 1021.9 hPa SW 5.6 km/h 5.6 km/h 55 % 0.0 mm 0.0 W/m2 CLR
06:28 14.1 °C 4.7 °C 1021.9 hPa WSW 5.6 km/h 5.6 km/h 53 % 0.0 mm 0.0 W/m2 CLR
06:33 14.3 °C 4.8 °C 1021.9 hPa Calm     53 % 0.0 mm 0.0 W/m2 CLR
06:38 14.1 °C 4.9 °C 1021.9 hPa Calm     54 % 0.0 mm 0.0 W/m2 CLR
06:43 13.6 °C 4.7 °C 1021.9 hPa Calm     55 % 0.0 mm 0.0 W/m2 CLR
06:48 13.2 °C 4.6 °C 1021.9 hPa Calm     56 % 0.0 mm 0.0 W/m2 CLR
06:53 12.9 °C 4.6 °C 1021.9 hPa Calm     57 % 0.0 mm 0.0 W/m2 CLR
06:58 12.7 °C 4.7 °C 1021.9 hPa Calm     58 % 0.0 mm 0.0 W/m2 CLR
07:03 12.4 °C 4.6 °C 1021.9 hPa Calm     59 % 0.0 mm 0.0 W/m2 CLR
07:08 12.1 °C 4.5 °C 1021.9 hPa Calm     60 % 0.0 mm 0.0 W/m2 CLR
07:13 11.9 °C 4.6 °C 1021.9 hPa Calm     61 % 0.0 mm 0.0 W/m2 OVC
07:18 11.8 °C 4.5 °C 1021.9 hPa Calm     61 % 0.0 mm 0.0 W/m2 OVC
07:23 11.8 °C 4.7 °C 1021.9 hPa Calm     62 % 0.0 mm 5.0 W/m2 OVC
07:28 11.7 °C 4.7 °C 1021.9 hPa Calm     62 % 0.0 mm 9.0 W/m2 BKN
07:33 11.7 °C 4.6 °C 1021.9 hPa Calm     62 % 0.0 mm 11.0 W/m2 BKN
07:38 11.7 °C 4.6 °C 1021.9 hPa Calm     62 % 0.0 mm 14.0 W/m2 BKN
07:43 11.6 °C 4.6 °C 1021.9 hPa Calm     62 % 0.0 mm 16.0 W/m2 BKN
07:48 11.7 °C 4.8 °C 1021.9 hPa Calm     63 % 0.0 mm 21.0 W/m2 BKN
07:53 11.8 °C 4.9 °C 1021.9 hPa Calm     63 % 0.0 mm 26.0 W/m2 BKN
07:58 11.9 °C 4.8 °C 1021.9 hPa Calm     62 % 0.0 mm 42.0 W/m2 BKN
08:04 12.1 °C 5.3 °C 1021.9 hPa Calm     63 % 0.0 mm 47.0 W/m2 SCT
08:09 12.4 °C 5.3 °C 1021.9 hPa Calm     62 % 0.0 mm 69.0 W/m2 SCT
08:14 12.8 °C 5.7 °C 1022.2 hPa Calm     62 % 0.0 mm 79.0 W/m2 FEW
08:19 13.1 °C 5.5 °C 1021.9 hPa Calm     60 % 0.0 mm 90.0 W/m2 CLR
08:24 13.3 °C 5.9 °C 1021.9 hPa Calm     61 % 0.0 mm 83.0 W/m2 FEW
08:29 13.9 °C 6.3 °C 1021.9 hPa WSW 4.8 km/h 4.8 km/h 60 % 0.0 mm 109.0 W/m2 CLR
08:34 14.8 °C 5.9 °C 1021.9 hPa SW 5.6 km/h 5.6 km/h 55 % 0.0 mm 84.0 W/m2 CLR
08:39 15.9 °C 6.1 °C 1021.9 hPa WSW 11.1 km/h 11.1 km/h 52 % 0.0 mm 174.0 W/m2 CLR
08:44 17.1 °C 6.0 °C 1021.9 hPa SW 5.6 km/h 5.6 km/h 48 % 0.0 mm 197.0 W/m2 CLR
08:49 17.8 °C 6.3 °C 1021.9 hPa SSW 11.1 km/h 11.1 km/h 47 % 0.0 mm 216.0 W/m2 CLR
08:54 17.7 °C 7.2 °C 1021.9 hPa Calm     50 % 0.0 mm 234.0 W/m2 CLR
08:59 17.8 °C 6.3 °C 1021.9 hPa WSW 7.4 km/h 7.4 km/h 47 % 0.0 mm 253.0 W/m2 CLR
09:04 18.4 °C 6.6 °C 1021.9 hPa WNW 11.3 km/h 11.3 km/h 46 % 0.0 mm 271.0 W/m2 CLR
09:09 19.1 °C 5.2 °C 1021.9 hPa WSW 18.5 km/h 18.5 km/h 40 % 0.0 mm 287.0 W/m2 CLR
09:14 19.8 °C 5.8 °C 1021.9 hPa SW 9.3 km/h 9.3 km/h 40 % 0.0 mm 301.0 W/m2 CLR
09:19 20.2 °C 6.2 °C 1021.9 hPa SW 13.0 km/h 13.0 km/h 40 % 0.0 mm 315.0 W/m2 CLR
09:24 20.5 °C 5.3 °C 1021.9 hPa WSW 16.7 km/h 16.7 km/h 37 % 0.0 mm 332.0 W/m2 CLR
09:29 20.8 °C 5.6 °C 1021.9 hPa WSW 9.3 km/h 9.3 km/h 37 % 0.0 mm 348.0 W/m2 CLR
09:34 21.1 °C 5.4 °C 1021.9 hPa WSW 9.7 km/h 9.7 km/h 36 % 0.0 mm 366.0 W/m2 CLR
09:39 21.2 °C 5.2 °C 1021.9 hPa WSW 19.3 km/h 19.3 km/h 35 % 0.0 mm 380.0 W/m2 CLR
09:44 21.4 °C 5.7 °C 1021.9 hPa WNW 13.0 km/h 13.0 km/h 36 % 0.0 mm 394.0 W/m2 CLR
09:49 21.6 °C 4.6 °C 1021.6 hPa West 18.5 km/h 18.5 km/h 33 % 0.0 mm 410.0 W/m2 CLR
09:54 21.7 °C 5.2 °C 1021.6 hPa WNW 11.3 km/h 11.3 km/h 34 % 0.0 mm 424.0 W/m2 CLR
09:59 21.8 °C 5.3 °C 1021.6 hPa WNW 14.8 km/h 14.8 km/h 34 % 0.0 mm 438.0 W/m2 CLR
10:04 21.9 °C 5.3 °C 1021.6 hPa WNW 11.1 km/h 11.1 km/h 34 % 0.0 mm 452.0 W/m2 CLR
10:09 22.1 °C 5.4 °C 1021.6 hPa WSW 14.8 km/h 14.8 km/h 34 % 0.0 mm 466.0 W/m2 CLR
10:14 22.2 °C 4.7 °C 1021.6 hPa WNW 22.2 km/h 22.2 km/h 32 % 0.0 mm 478.0 W/m2 CLR
10:19 22.2 °C 5.2 °C 1021.6 hPa WNW 24.1 km/h 24.1 km/h 33 % 0.0 mm 490.0 W/m2 CLR
10:24 22.3 °C 4.8 °C 1021.6 hPa West 19.3 km/h 19.3 km/h 32 % 0.0 mm 503.0 W/m2 CLR
10:29 22.4 °C 4.9 °C 1021.6 hPa WNW 14.8 km/h 14.8 km/h 32 % 0.0 mm 513.0 W/m2 CLR
10:34 22.6 °C 5.5 °C 1021.2 hPa NW 22.2 km/h 22.2 km/h 33 % 0.0 mm 529.0 W/m2 CLR
10:39 22.7 °C 5.1 °C 1021.2 hPa West 24.1 km/h 24.1 km/h 32 % 0.0 mm 541.0 W/m2 CLR
10:44 22.8 °C 4.8 °C 1021.2 hPa West 31.5 km/h 31.5 km/h 31 % 0.0 mm 554.0 W/m2 CLR
10:49 23.0 °C 4.9 °C 1021.2 hPa WNW 24.1 km/h 24.1 km/h 31 % 0.0 mm 563.0 W/m2 CLR
10:54 23.2 °C 5.2 °C 1021.2 hPa West 24.1 km/h 24.1 km/h 31 % 0.0 mm 575.0 W/m2 CLR
10:59 23.4 °C 5.7 °C 1021.2 hPa WNW 18.5 km/h 18.5 km/h 32 % 0.0 mm 584.0 W/m2 CLR
11:04 23.6 °C 6.8 °C 1021.2 hPa WNW 17.7 km/h 17.7 km/h 34 % 0.0 mm 594.0 W/m2 CLR
11:09 23.6 °C 5.9 °C 1021.2 hPa WNW 25.9 km/h 25.9 km/h 32 % 0.0 mm 603.0 W/m2 CLR
11:14 23.6 °C 5.9 °C 1021.2 hPa NNW 25.9 km/h 25.9 km/h 32 % 0.0 mm 615.0 W/m2 CLR
11:19 23.6 °C 5.5 °C 1021.2 hPa WNW 29.6 km/h 29.6 km/h 31 % 0.0 mm 624.0 W/m2 CLR
11:24 23.7 °C 6.5 °C 1021.2 hPa WNW 18.5 km/h 18.5 km/h 33 % 0.0 mm 633.0 W/m2 CLR
11:29 23.9 °C 7.1 °C 1021.2 hPa WNW 18.5 km/h 18.5 km/h 34 % 0.0 mm 642.0 W/m2 CLR
11:34 24.0 °C 6.3 °C 1020.9 hPa WNW 22.2 km/h 22.2 km/h 32 % 0.0 mm 650.0 W/m2 CLR
11:39 23.9 °C 5.8 °C 1020.9 hPa NW 22.2 km/h 22.2 km/h 31 % 0.0 mm 657.0 W/m2 CLR
11:44 24.1 °C 5.9 °C 1020.9 hPa WNW 18.5 km/h 18.5 km/h 31 % 0.0 mm 666.0 W/m2 CLR
11:49 24.3 °C 6.1 °C 1020.9 hPa NW 14.5 km/h 14.5 km/h 31 % 0.0 mm 673.0 W/m2 CLR
11:54 24.5 °C 6.3 °C 1020.9 hPa WNW 22.5 km/h 22.5 km/h 31 % 0.0 mm 682.0 W/m2 CLR
11:59 24.5 °C 5.8 °C 1020.9 hPa NW 24.1 km/h 24.1 km/h 30 % 0.0 mm 689.0 W/m2 CLR
12:04 24.6 °C 5.8 °C 1020.5 hPa WNW 18.5 km/h 18.5 km/h 30 % 0.0 mm 694.0 W/m2 CLR
12:09 24.7 °C 5.5 °C 1020.5 hPa NW 24.1 km/h 24.1 km/h 29 % 0.0 mm 700.0 W/m2 CLR
12:14 24.8 °C 5.6 °C 1020.5 hPa WNW 20.4 km/h 20.4 km/h 29 % 0.0 mm 705.0 W/m2 CLR
12:19 24.9 °C 4.7 °C 1020.5 hPa NW 20.4 km/h 20.4 km/h 27 % 0.0 mm 710.0 W/m2 CLR
12:24 25.1 °C 5.3 °C 1020.5 hPa WNW 16.7 km/h 16.7 km/h 28 % 0.0 mm 712.0 W/m2 CLR
12:29 25.2 °C 4.9 °C 1020.5 hPa NNW 24.1 km/h 24.1 km/h 27 % 0.0 mm 715.0 W/m2 CLR
12:34 25.2 °C 5.3 °C 1020.5 hPa NW 25.9 km/h 25.9 km/h 28 % 0.0 mm 719.0 W/m2 CLR
12:40 25.2 °C 5.4 °C 1020.2 hPa NNW 25.9 km/h 25.9 km/h 28 % 0.0 mm 721.0 W/m2 CLR
12:45 25.2 °C 5.4 °C 1020.2 hPa NNW 33.3 km/h 33.3 km/h 28 % 0.0 mm 726.0 W/m2 CLR
12:50 25.3 °C 4.9 °C 1020.2 hPa NW 24.1 km/h 24.1 km/h 27 % 0.0 mm 728.0 W/m2 CLR
12:55 25.4 °C 5.6 °C 1019.9 hPa WNW 20.9 km/h 20.9 km/h 28 % 0.0 mm 733.0 W/m2 CLR
13:00 25.4 °C 3.9 °C 1020.2 hPa NW 31.5 km/h 31.5 km/h 25 % 0.0 mm 733.0 W/m2 CLR
13:05 25.6 °C 5.2 °C 1019.9 hPa NW 24.1 km/h 24.1 km/h 27 % 0.0 mm 733.0 W/m2 CLR
13:10 25.8 °C 5.3 °C 1019.9 hPa NW 22.2 km/h 22.2 km/h 27 % 0.0 mm 731.0 W/m2 CLR
13:15 25.8 °C 5.4 °C 1019.9 hPa NNW 16.7 km/h 16.7 km/h 27 % 0.0 mm 731.0 W/m2 CLR
13:20 25.6 °C 4.1 °C 1019.9 hPa NNW 31.5 km/h 31.5 km/h 25 % 0.0 mm 729.0 W/m2 CLR
13:25 25.6 °C 4.6 °C 1019.5 hPa WNW 35.2 km/h 35.2 km/h 26 % 0.0 mm 733.0 W/m2 CLR
13:30 25.6 °C 4.1 °C 1019.5 hPa WNW 22.2 km/h 22.2 km/h 25 % 0.0 mm 729.0 W/m2 CLR
13:35 25.8 °C 4.8 °C 1019.5 hPa WNW 27.8 km/h 27.8 km/h 26 % 0.0 mm 728.0 W/m2 CLR
13:40 25.9 °C 4.3 °C 1019.5 hPa NW 29.6 km/h 29.6 km/h 25 % 0.0 mm 726.0 W/m2 CLR
13:45 25.9 °C 4.9 °C 1019.2 hPa NNW 19.3 km/h 19.3 km/h 26 % 0.0 mm 724.0 W/m2 CLR
13:50 26.1 °C 4.6 °C 1019.2 hPa NW 27.8 km/h 27.8 km/h 25 % 0.0 mm 721.0 W/m2 CLR
13:55 26.2 °C 5.2 °C 1019.2 hPa NNW 24.1 km/h 24.1 km/h 26 % 0.0 mm 719.0 W/m2 CLR
14:00 26.2 °C 5.2 °C 1019.2 hPa North 29.6 km/h 29.6 km/h 26 % 0.0 mm 717.0 W/m2 CLR
14:05 26.3 °C 4.1 °C 1019.2 hPa NW 20.4 km/h 20.4 km/h 24 % 0.0 mm 712.0 W/m2 CLR
14:10 26.7 °C 5.1 °C 1018.8 hPa NNW 20.4 km/h 20.4 km/h 25 % 0.0 mm 708.0 W/m2 CLR
14:15 26.7 °C 3.8 °C 1018.8 hPa NW 27.8 km/h 27.8 km/h 23 % 0.0 mm 703.0 W/m2 CLR
14:20 26.7 °C 3.2 °C 1018.8 hPa NNW 29.6 km/h 29.6 km/h 22 % 0.0 mm 700.0 W/m2 CLR
14:25 26.7 °C 3.2 °C 1018.8 hPa NNW 27.8 km/h 27.8 km/h 22 % 0.0 mm 693.0 W/m2 CLR
14:30 26.7 °C 3.8 °C 1018.5 hPa NW 29.6 km/h 29.6 km/h 23 % 0.0 mm 684.0 W/m2 CLR
14:35 26.9 °C 4.6 °C 1018.8 hPa NW 18.5 km/h 18.5 km/h 24 % 0.0 mm 682.0 W/m2 CLR
14:40 26.9 °C 4.6 °C 1018.5 hPa NNW 25.9 km/h 25.9 km/h 24 % 0.0 mm 675.0 W/m2 CLR
14:45 26.8 °C 3.9 °C 1018.5 hPa NNW 22.2 km/h 22.2 km/h 23 % 0.0 mm 666.0 W/m2 CLR
14:50 27.1 °C 4.2 °C 1018.5 hPa NNW 24.1 km/h 24.1 km/h 23 % 0.0 mm 656.0 W/m2 CLR
14:55 27.1 °C 4.1 °C 1018.5 hPa NNW 29.6 km/h 29.6 km/h 23 % 0.0 mm 650.0 W/m2 CLR
15:00 27.1 °C 4.1 °C 1018.2 hPa North 27.8 km/h 27.8 km/h 23 % 0.0 mm 640.0 W/m2 CLR
15:05 27.1 °C 4.7 °C 1018.2 hPa NNW 25.9 km/h 25.9 km/h 24 % 0.0 mm 635.0 W/m2 CLR
15:10 27.2 °C 5.4 °C 1018.2 hPa NNW 20.4 km/h 20.4 km/h 25 % 0.0 mm 624.0 W/m2 CLR
15:15 27.1 °C 3.6 °C 1018.2 hPa North 27.8 km/h 27.8 km/h 22 % 0.0 mm 612.0 W/m2 CLR
15:20 27.3 °C 4.9 °C 1018.2 hPa NW 25.9 km/h 25.9 km/h 24 % 0.0 mm 605.0 W/m2 CLR
15:25 27.2 °C 4.3 °C 1017.8 hPa NNW 25.9 km/h 25.9 km/h 23 % 0.0 mm 594.0 W/m2 CLR
15:30 27.2 °C 5.5 °C 1017.8 hPa NNW 20.4 km/h 20.4 km/h 25 % 0.0 mm 580.0 W/m2 CLR
15:35 27.3 °C 5.6 °C 1017.8 hPa NNW 25.7 km/h 25.7 km/h 25 % 0.0 mm 570.0 W/m2 CLR
15:40 27.3 °C 4.3 °C 1017.8 hPa NW 24.1 km/h 24.1 km/h 23 % 0.0 mm 568.0 W/m2 CLR
15:45 27.4 °C 4.4 °C 1017.8 hPa NNW 16.7 km/h 16.7 km/h 23 % 0.0 mm 548.0 W/m2 CLR
15:50 27.5 °C 3.2 °C 1017.8 hPa NNW 25.9 km/h 25.9 km/h 21 % 0.0 mm 538.0 W/m2 CLR
15:55 27.2 °C 4.9 °C 1017.8 hPa NNW 20.4 km/h 20.4 km/h 24 % 0.0 mm 522.0 W/m2 CLR
16:00 27.2 °C 4.3 °C 1017.5 hPa NW 24.1 km/h 24.1 km/h 23 % 0.0 mm 517.0 W/m2 CLR
16:05 27.2 °C 4.9 °C 1017.5 hPa NNW 24.1 km/h 24.1 km/h 24 % 0.0 mm 497.0 W/m2 CLR
16:10 27.3 °C 5.5 °C 1017.5 hPa NNW 19.3 km/h 19.3 km/h 25 % 0.0 mm 483.0 W/m2 CLR
16:15 27.3 °C 5.0 °C 1017.5 hPa WNW 20.9 km/h 20.9 km/h 24 % 0.0 mm 469.0 W/m2 CLR
16:20 27.4 °C 5.0 °C 1017.2 hPa NW 18.5 km/h 18.5 km/h 24 % 0.0 mm 455.0 W/m2 CLR
16:25 27.4 °C 5.7 °C 1017.5 hPa NW 14.8 km/h 14.8 km/h 25 % 0.0 mm 443.0 W/m2 CLR
16:30 27.5 °C 6.3 °C 1017.2 hPa WNW 17.7 km/h 17.7 km/h 26 % 0.0 mm 427.0 W/m2 CLR
16:35 27.4 °C 4.4 °C 1017.2 hPa NW 16.7 km/h 16.7 km/h 23 % 0.0 mm 417.0 W/m2 CLR
16:40 27.4 °C 4.4 °C 1017.2 hPa NNW 18.5 km/h 18.5 km/h 23 % 0.0 mm 403.0 W/m2 CLR
16:45 27.3 °C 3.1 °C 1017.2 hPa NW 22.2 km/h 22.2 km/h 21 % 0.0 mm 387.0 W/m2 CLR
16:50 27.3 °C 3.1 °C 1017.2 hPa NNW 20.4 km/h 20.4 km/h 21 % 0.0 mm 373.0 W/m2 CLR
16:55 27.3 °C 3.1 °C 1017.2 hPa NW 18.5 km/h 18.5 km/h 21 % 0.0 mm 355.0 W/m2 CLR
17:00 27.3 °C 2.3 °C 1017.2 hPa NNW 18.5 km/h 18.5 km/h 20 % 0.0 mm 341.0 W/m2 CLR
17:05 27.3 °C 3.1 °C 1017.2 hPa North 14.8 km/h 14.8 km/h 21 % 0.0 mm 325.0 W/m2 CLR
17:10 27.3 °C 1.7 °C 1017.2 hPa NW 27.8 km/h 27.8 km/h 19 % 0.0 mm 311.0 W/m2 CLR
17:15 27.1 °C 1.5 °C 1016.8 hPa NW 25.9 km/h 25.9 km/h 19 % 0.0 mm 294.0 W/m2 CLR
17:20 27.1 °C 2.2 °C 1017.2 hPa NW 14.5 km/h 14.5 km/h 20 % 0.0 mm 278.0 W/m2 CLR
17:25 27.1 °C 0.7 °C 1016.8 hPa North 20.4 km/h 20.4 km/h 18 % 0.0 mm 260.0 W/m2 CLR
17:30 27.1 °C 1.4 °C 1016.8 hPa NW 18.5 km/h 18.5 km/h 19 % 0.0 mm 243.0 W/m2 CLR
17:35 26.9 °C 1.3 °C 1016.8 hPa NW 14.8 km/h 14.8 km/h 19 % 0.0 mm 220.0 W/m2 CLR
17:40 26.8 °C 2.0 °C 1016.8 hPa NNW 14.8 km/h 14.8 km/h 20 % 0.0 mm 200.0 W/m2 CLR
17:45 26.8 °C 1.9 °C 1016.8 hPa NNW 16.7 km/h 16.7 km/h 20 % 0.0 mm 181.0 W/m2 CLR
17:50 26.7 °C 2.5 °C 1017.2 hPa NNW 20.4 km/h 20.4 km/h 21 % 0.0 mm 162.0 W/m2 CLR
17:56 26.5 °C 1.7 °C 1017.2 hPa NW 18.5 km/h 18.5 km/h 20 % 0.0 mm 144.0 W/m2 CLR
18:01 26.4 °C 1.6 °C 1016.8 hPa NW 16.7 km/h 16.7 km/h 20 % 0.0 mm 123.0 W/m2 CLR
18:06 26.3 °C 0.1 °C 1016.8 hPa NNW 16.7 km/h 16.7 km/h 18 % 0.0 mm 105.0 W/m2 CLR
18:11 26.2 °C 1.4 °C 1016.8 hPa NW 14.8 km/h 14.8 km/h 20 % 0.0 mm 88.0 W/m2 CLR
18:16 25.9 °C 0.6 °C 1016.8 hPa NW 18.5 km/h 18.5 km/h 19 % 0.0 mm 56.0 W/m2 FEW
18:21 25.8 °C 1.8 °C 1017.2 hPa NW 14.8 km/h 14.8 km/h 21 % 0.0 mm 54.0 W/m2 SCT
18:26 25.6 °C 1.6 °C 1017.2 hPa NW 6.4 km/h 6.4 km/h 21 % 0.0 mm 44.0 W/m2 SCT
18:31 25.3 °C 1.4 °C 1017.2 hPa Calm     21 % 0.0 mm 33.0 W/m2 BKN
18:36 25.3 °C 0.7 °C 1017.2 hPa Calm     20 % 0.0 mm 23.0 W/m2 BKN
18:41 25.1 °C 0.6 °C 1017.2 hPa Calm     20 % 0.0 mm 14.0 W/m2 BKN
18:46 24.7 °C 1.5 °C 1017.5 hPa Calm     22 % 0.0 mm 12.0 W/m2 BKN
18:51 24.2 °C 1.2 °C 1017.5 hPa Calm     22 % 0.0 mm 11.0 W/m2 BKN
18:56 23.9 °C 2.1 °C 1017.5 hPa Calm     24 % 0.0 mm 7.0 W/m2 BKN
19:01 23.4 °C 1.7 °C 1017.5 hPa Calm     24 % 0.0 mm 5.0 W/m2 OVC
19:06 22.8 °C 1.7 °C 1017.5 hPa Calm     25 % 0.0 mm 0.0 W/m2 OVC
19:11 22.4 °C 0.8 °C 1017.5 hPa Calm     24 % 0.0 mm 0.0 W/m2 CLR
19:16 22.2 °C 1.7 °C 1017.5 hPa Calm     26 % 0.0 mm 0.0 W/m2 CLR
19:21 21.9 °C 2.1 °C 1017.5 hPa Calm     27 % 0.0 mm 0.0 W/m2 CLR
19:26 21.5 °C 2.2 °C 1017.5 hPa Calm     28 % 0.0 mm 0.0 W/m2 CLR
19:31 21.1 °C 2.4 °C 1017.8 hPa Calm     29 % 0.0 mm 0.0 W/m2 CLR
19:36 20.7 °C 3.8 °C 1017.8 hPa Calm     33 % 0.0 mm 0.0 W/m2 CLR
19:41 20.1 °C 3.3 °C 1017.8 hPa Calm     33 % 0.0 mm 0.0 W/m2 CLR
19:46 19.4 °C 4.3 °C 1017.8 hPa Calm     37 % 0.0 mm 0.0 W/m2 CLR
19:51 18.7 °C 4.5 °C 1017.8 hPa Calm     39 % 0.0 mm 0.0 W/m2 CLR
19:56 18.1 °C 4.2 °C 1017.8 hPa Calm     40 % 0.0 mm 0.0 W/m2 CLR
20:01 17.7 °C 4.3 °C 1017.8 hPa Calm     41 % 0.0 mm 0.0 W/m2 CLR
20:06 17.4 °C 4.0 °C 1017.8 hPa Calm     41 % 0.0 mm 0.0 W/m2 CLR
20:11 17.2 °C 3.8 °C 1017.8 hPa Calm     41 % 0.0 mm 0.0 W/m2 CLR
20:16 17.0 °C 4.7 °C 1018.2 hPa Calm     44 % 0.0 mm 0.0 W/m2 CLR
20:21 16.7 °C 4.3 °C 1018.2 hPa Calm     44 % 0.0 mm 0.0 W/m2 CLR
20:26 16.4 °C 4.1 °C 1018.2 hPa Calm     44 % 0.0 mm 0.0 W/m2 CLR
20:31 16.1 °C 4.2 °C 1018.2 hPa Calm     45 % 0.0 mm 0.0 W/m2 CLR
20:36 15.8 °C 4.2 °C 1018.2 hPa Calm     46 % 0.0 mm 0.0 W/m2 CLR
20:41 15.6 °C 4.3 °C 1018.2 hPa Calm     47 % 0.0 mm 0.0 W/m2 CLR
20:46 15.2 °C 4.2 °C 1018.2 hPa Calm     48 % 0.0 mm 0.0 W/m2 CLR
20:51 14.9 °C 4.3 °C 1018.5 hPa Calm     49 % 0.0 mm 0.0 W/m2 CLR
20:56 14.8 °C 4.4 °C 1018.2 hPa Calm     50 % 0.0 mm 0.0 W/m2 CLR
21:01 14.6 °C 4.5 °C 1018.5 hPa Calm     51 % 0.0 mm 0.0 W/m2 CLR
21:06 14.2 °C 4.8 °C 1018.5 hPa Calm     53 % 0.0 mm 0.0 W/m2 CLR
21:11 13.9 °C 4.4 °C 1018.5 hPa Calm     53 % 0.0 mm 0.0 W/m2 CLR
21:16 13.7 °C 4.3 °C 1018.2 hPa Calm     53 % 0.0 mm 0.0 W/m2 CLR
21:21 13.6 °C 4.4 °C 1018.5 hPa Calm     54 % 0.0 mm 0.0 W/m2 CLR
21:26 13.3 °C 4.4 °C 1018.5 hPa Calm     55 % 0.0 mm 0.0 W/m2 CLR
21:31 13.1 °C 4.3 °C 1018.5 hPa Calm     55 % 0.0 mm 0.0 W/m2 CLR
21:36 13.0 °C 4.4 °C 1018.5 hPa Calm     56 % 0.0 mm 0.0 W/m2 CLR
21:41 12.9 °C 4.4 °C 1018.5 hPa Calm     56 % 0.0 mm 0.0 W/m2 CLR
21:46 13.0 °C 4.4 °C 1018.5 hPa Calm     56 % 0.0 mm 0.0 W/m2 CLR
21:51 12.9 °C 4.1 °C 1018.5 hPa Calm     55 % 0.0 mm 0.0 W/m2 CLR
21:56 12.9 °C 4.1 °C 1018.5 hPa Calm     55 % 0.0 mm 0.0 W/m2 CLR
22:01 12.8 °C 4.3 °C 1018.5 hPa Calm     56 % 0.0 mm 0.0 W/m2 CLR
22:06 12.6 °C 4.6 °C 1018.8 hPa Calm     58 % 0.0 mm 0.0 W/m2 CLR
22:11 12.3 °C 4.6 °C 1018.8 hPa Calm     59 % 0.0 mm 0.0 W/m2 CLR
22:16 12.1 °C 4.3 °C 1018.8 hPa Calm     59 % 0.0 mm 0.0 W/m2 CLR
22:21 12.1 °C 4.5 °C 1018.8 hPa Calm     60 % 0.0 mm 0.0 W/m2 CLR
22:26 11.9 °C 4.7 °C 1018.8 hPa Calm     61 % 0.0 mm 0.0 W/m2 CLR
22:31 11.7 °C 4.4 °C 1018.8 hPa Calm     61 % 0.0 mm 0.0 W/m2 CLR
22:36 11.6 °C 4.5 °C 1018.8 hPa Calm     62 % 0.0 mm 0.0 W/m2 CLR
22:37 11.6 °C 4.5 °C 1018.8 hPa Calm     62 % 0.0 mm 0.0 W/m2 CLR
22:42 11.4 °C 4.4 °C 1018.8 hPa Calm     62 % 0.0 mm 0.0 W/m2 CLR
22:47 11.3 °C 4.5 °C 1018.8 hPa Calm     63 % 0.0 mm 0.0 W/m2 CLR
22:52 11.2 °C 4.4 °C 1018.8 hPa Calm     63 % 0.0 mm 0.0 W/m2 CLR
22:57 11.1 °C 4.3 °C 1018.8 hPa Calm     63 % 0.0 mm 0.0 W/m2 CLR
23:02 11.1 °C 4.3 °C 1018.8 hPa Calm     63 % 0.0 mm 0.0 W/m2 CLR
23:07 11.1 °C 4.3 °C 1018.8 hPa Calm     63 % 0.0 mm 0.0 W/m2 CLR
23:12 11.2 °C 4.4 °C 1018.8 hPa Calm     63 % 0.0 mm 0.0 W/m2 CLR
23:17 11.2 °C 4.4 °C 1018.8 hPa Calm     63 % 0.0 mm 0.0 W/m2 CLR
23:22 11.2 °C 4.4 °C 1018.8 hPa Calm     63 % 0.0 mm 0.0 W/m2 CLR
23:27 11.0 °C 4.4 °C 1019.2 hPa Calm     64 % 0.0 mm 0.0 W/m2 CLR
23:32 10.7 °C 4.4 °C 1019.2 hPa Calm     65 % 0.0 mm 0.0 W/m2 CLR
23:37 10.4 °C 4.3 °C 1019.2 hPa Calm     66 % 0.0 mm 0.0 W/m2 CLR
23:42 10.3 °C 4.4 °C 1019.2 hPa Calm     67 % 0.0 mm 0.0 W/m2 CLR
23:47 10.2 °C 4.3 °C 1019.2 hPa Calm     67 % 0.0 mm 0.0 W/m2 CLR
23:52 10.2 °C 4.4 °C 1019.2 hPa Calm     67 % 0.0 mm 0.0 W/m2 CLR
23:57 10.2 °C 4.5 °C 1019.2 hPa Calm     68 % 0.0 mm 0.0 W/m2 CLR
Lo Temps de Massalio
Compliments of Weather Underground - 1.25 mb